sensor_id;sensor_type;location;lat;lon;timestamp;P1;durP1;ratioP1;P2;durP2;ratioP2
78402;SDS011;67687;43.508;1.504;2023-07-13T00:00:45;5.10;;;2.50;;
78402;SDS011;67687;43.508;1.504;2023-07-13T00:03:11;7.22;;;2.55;;
78402;SDS011;67687;43.508;1.504;2023-07-13T00:05:39;5.07;;;2.60;;
78402;SDS011;67687;43.508;1.504;2023-07-13T00:08:06;4.43;;;2.20;;
78402;SDS011;67687;43.508;1.504;2023-07-13T00:10:33;6.15;;;2.55;;
78402;SDS011;67687;43.508;1.504;2023-07-13T00:13:00;4.38;;;2.58;;
78402;SDS011;67687;43.508;1.504;2023-07-13T00:15:27;4.80;;;2.42;;
78402;SDS011;67687;43.508;1.504;2023-07-13T00:17:58;5.38;;;2.55;;
78402;SDS011;67687;43.508;1.504;2023-07-13T00:20:26;5.40;;;2.13;;
78402;SDS011;67687;43.508;1.504;2023-07-13T00:22:52;4.95;;;2.35;;
78402;SDS011;67687;43.508;1.504;2023-07-13T00:25:19;5.13;;;2.40;;
78402;SDS011;67687;43.508;1.504;2023-07-13T00:27:46;4.78;;;2.53;;
78402;SDS011;67687;43.508;1.504;2023-07-13T00:30:14;5.22;;;2.70;;
78402;SDS011;67687;43.508;1.504;2023-07-13T00:32:41;7.37;;;2.50;;
78402;SDS011;67687;43.508;1.504;2023-07-13T00:35:10;4.93;;;2.58;;
78402;SDS011;67687;43.508;1.504;2023-07-13T00:37:37;4.60;;;2.65;;
78402;SDS011;67687;43.508;1.504;2023-07-13T00:40:04;4.78;;;2.78;;
78402;SDS011;67687;43.508;1.504;2023-07-13T00:42:32;5.10;;;2.83;;
78402;SDS011;67687;43.508;1.504;2023-07-13T00:45:03;5.50;;;2.53;;
78402;SDS011;67687;43.508;1.504;2023-07-13T00:47:34;4.97;;;2.45;;
78402;SDS011;67687;43.508;1.504;2023-07-13T00:50:00;4.90;;;2.72;;
78402;SDS011;67687;43.508;1.504;2023-07-13T00:52:29;5.55;;;2.90;;
78402;SDS011;67687;43.508;1.504;2023-07-13T00:54:56;5.05;;;2.92;;
78402;SDS011;67687;43.508;1.504;2023-07-13T00:57:24;5.57;;;2.90;;
78402;SDS011;67687;43.508;1.504;2023-07-13T00:59:52;4.97;;;2.95;;
78402;SDS011;67687;43.508;1.504;2023-07-13T01:02:20;5.55;;;2.92;;
78402;SDS011;67687;43.508;1.504;2023-07-13T01:04:47;4.88;;;2.83;;
78402;SDS011;67687;43.508;1.504;2023-07-13T01:07:14;4.30;;;2.50;;
78402;SDS011;67687;43.508;1.504;2023-07-13T01:09:42;5.17;;;2.70;;
78402;SDS011;67687;43.508;1.504;2023-07-13T01:12:10;7.43;;;2.90;;
78402;SDS011;67687;43.508;1.504;2023-07-13T01:14:37;5.85;;;2.80;;
78402;SDS011;67687;43.508;1.504;2023-07-13T01:17:04;5.78;;;2.88;;
78402;SDS011;67687;43.508;1.504;2023-07-13T01:19:32;5.97;;;2.60;;
78402;SDS011;67687;43.508;1.504;2023-07-13T01:22:04;4.83;;;2.80;;
78402;SDS011;67687;43.508;1.504;2023-07-13T01:24:34;5.03;;;2.72;;
78402;SDS011;67687;43.508;1.504;2023-07-13T01:27:01;5.53;;;2.75;;
78402;SDS011;67687;43.508;1.504;2023-07-13T01:29:27;5.18;;;2.60;;
78402;SDS011;67687;43.508;1.504;2023-07-13T01:31:54;6.00;;;3.08;;
78402;SDS011;67687;43.508;1.504;2023-07-13T01:34:21;4.80;;;2.63;;
78402;SDS011;67687;43.508;1.504;2023-07-13T01:36:48;5.80;;;2.83;;
78402;SDS011;67687;43.508;1.504;2023-07-13T01:39:16;5.90;;;3.00;;
78402;SDS011;67687;43.508;1.504;2023-07-13T01:41:43;5.25;;;2.47;;
78402;SDS011;67687;43.508;1.504;2023-07-13T01:44:09;5.50;;;2.50;;
78402;SDS011;67687;43.508;1.504;2023-07-13T01:46:36;4.37;;;2.30;;
78402;SDS011;67687;43.508;1.504;2023-07-13T01:49:03;6.00;;;2.63;;
78402;SDS011;67687;43.508;1.504;2023-07-13T01:51:30;7.05;;;2.70;;
78402;SDS011;67687;43.508;1.504;2023-07-13T01:53:59;5.80;;;2.50;;
78402;SDS011;67687;43.508;1.504;2023-07-13T01:56:27;6.38;;;2.53;;
78402;SDS011;67687;43.508;1.504;2023-07-13T01:58:54;4.00;;;2.30;;
78402;SDS011;67687;43.508;1.504;2023-07-13T02:01:22;4.82;;;2.50;;
78402;SDS011;67687;43.508;1.504;2023-07-13T02:03:48;4.22;;;2.28;;
78402;SDS011;67687;43.508;1.504;2023-07-13T02:06:15;6.32;;;2.42;;
78402;SDS011;67687;43.508;1.504;2023-07-13T02:08:42;5.13;;;2.60;;
78402;SDS011;67687;43.508;1.504;2023-07-13T02:11:09;7.00;;;2.63;;
78402;SDS011;67687;43.508;1.504;2023-07-13T02:13:37;6.10;;;2.45;;
78402;SDS011;67687;43.508;1.504;2023-07-13T02:16:04;4.97;;;2.40;;
78402;SDS011;67687;43.508;1.504;2023-07-13T02:18:31;5.32;;;2.25;;
78402;SDS011;67687;43.508;1.504;2023-07-13T02:20:58;6.82;;;2.63;;
78402;SDS011;67687;43.508;1.504;2023-07-13T02:23:25;4.43;;;2.33;;
78402;SDS011;67687;43.508;1.504;2023-07-13T02:25:54;6.30;;;2.63;;
78402;SDS011;67687;43.508;1.504;2023-07-13T02:28:21;6.40;;;2.40;;
78402;SDS011;67687;43.508;1.504;2023-07-13T02:30:49;5.32;;;2.40;;
78402;SDS011;67687;43.508;1.504;2023-07-13T02:33:16;5.55;;;2.60;;
78402;SDS011;67687;43.508;1.504;2023-07-13T02:35:43;4.97;;;2.93;;
78402;SDS011;67687;43.508;1.504;2023-07-13T02:38:09;5.40;;;2.55;;
78402;SDS011;67687;43.508;1.504;2023-07-13T02:40:36;5.65;;;2.85;;
78402;SDS011;67687;43.508;1.504;2023-07-13T02:43:03;5.45;;;2.92;;
78402;SDS011;67687;43.508;1.504;2023-07-13T02:45:30;5.38;;;2.42;;
78402;SDS011;67687;43.508;1.504;2023-07-13T02:47:58;6.00;;;2.40;;
78402;SDS011;67687;43.508;1.504;2023-07-13T02:50:25;5.15;;;2.45;;
78402;SDS011;67687;43.508;1.504;2023-07-13T02:52:52;5.18;;;2.60;;
78402;SDS011;67687;43.508;1.504;2023-07-13T02:55:18;4.68;;;2.45;;
78402;SDS011;67687;43.508;1.504;2023-07-13T02:57:45;4.95;;;2.60;;
78402;SDS011;67687;43.508;1.504;2023-07-13T03:00:12;5.47;;;2.40;;
78402;SDS011;67687;43.508;1.504;2023-07-13T03:02:41;6.40;;;2.67;;
78402;SDS011;67687;43.508;1.504;2023-07-13T03:05:09;5.47;;;2.70;;
78402;SDS011;67687;43.508;1.504;2023-07-13T03:07:37;6.18;;;2.53;;
78402;SDS011;67687;43.508;1.504;2023-07-13T03:10:05;5.38;;;2.75;;
78402;SDS011;67687;43.508;1.504;2023-07-13T03:12:32;4.80;;;2.50;;
78402;SDS011;67687;43.508;1.504;2023-07-13T03:14:59;5.68;;;2.47;;
78402;SDS011;67687;43.508;1.504;2023-07-13T03:17:26;6.20;;;2.45;;
78402;SDS011;67687;43.508;1.504;2023-07-13T03:19:52;5.78;;;2.60;;
78402;SDS011;67687;43.508;1.504;2023-07-13T03:22:21;5.35;;;2.38;;
78402;SDS011;67687;43.508;1.504;2023-07-13T03:24:48;8.33;;;2.40;;
78402;SDS011;67687;43.508;1.504;2023-07-13T03:27:14;5.30;;;2.25;;
78402;SDS011;67687;43.508;1.504;2023-07-13T03:29:41;6.28;;;2.20;;
78402;SDS011;67687;43.508;1.504;2023-07-13T03:32:08;5.82;;;2.30;;
78402;SDS011;67687;43.508;1.504;2023-07-13T03:34:35;4.93;;;2.20;;
78402;SDS011;67687;43.508;1.504;2023-07-13T03:37:02;6.90;;;2.13;;
78402;SDS011;67687;43.508;1.504;2023-07-13T03:39:31;3.97;;;2.08;;
78402;SDS011;67687;43.508;1.504;2023-07-13T03:41:57;7.30;;;2.28;;
78402;SDS011;67687;43.508;1.504;2023-07-13T03:44:24;6.40;;;2.20;;
78402;SDS011;67687;43.508;1.504;2023-07-13T03:46:51;6.88;;;2.20;;
78402;SDS011;67687;43.508;1.504;2023-07-13T03:49:18;5.53;;;2.10;;
78402;SDS011;67687;43.508;1.504;2023-07-13T03:51:45;5.45;;;2.17;;
78402;SDS011;67687;43.508;1.504;2023-07-13T03:54:11;5.72;;;2.20;;
78402;SDS011;67687;43.508;1.504;2023-07-13T03:56:39;4.82;;;1.88;;
78402;SDS011;67687;43.508;1.504;2023-07-13T03:59:06;6.30;;;2.00;;
78402;SDS011;67687;43.508;1.504;2023-07-13T04:01:33;4.00;;;2.00;;
78402;SDS011;67687;43.508;1.504;2023-07-13T04:04:00;7.85;;;1.90;;
78402;SDS011;67687;43.508;1.504;2023-07-13T04:06:27;5.15;;;2.00;;
78402;SDS011;67687;43.508;1.504;2023-07-13T04:08:56;5.75;;;2.13;;
78402;SDS011;67687;43.508;1.504;2023-07-13T04:11:24;6.38;;;2.28;;
78402;SDS011;67687;43.508;1.504;2023-07-13T04:13:53;6.97;;;1.90;;
78402;SDS011;67687;43.508;1.504;2023-07-13T04:16:20;8.15;;;2.47;;
78402;SDS011;67687;43.508;1.504;2023-07-13T04:18:47;4.55;;;2.20;;
78402;SDS011;67687;43.508;1.504;2023-07-13T04:21:14;6.10;;;2.33;;
78402;SDS011;67687;43.508;1.504;2023-07-13T04:23:42;7.50;;;2.42;;
78402;SDS011;67687;43.508;1.504;2023-07-13T04:26:09;5.67;;;2.37;;
78402;SDS011;67687;43.508;1.504;2023-07-13T04:28:36;7.10;;;2.10;;
78402;SDS011;67687;43.508;1.504;2023-07-13T04:31:04;5.10;;;2.28;;
78402;SDS011;67687;43.508;1.504;2023-07-13T04:33:31;7.88;;;2.55;;
78402;SDS011;67687;43.508;1.504;2023-07-13T04:35:59;6.18;;;2.15;;
78402;SDS011;67687;43.508;1.504;2023-07-13T04:38:27;7.20;;;2.40;;
78402;SDS011;67687;43.508;1.504;2023-07-13T04:40:55;6.97;;;2.28;;
78402;SDS011;67687;43.508;1.504;2023-07-13T04:43:23;5.90;;;2.30;;
78402;SDS011;67687;43.508;1.504;2023-07-13T04:45:50;6.85;;;2.08;;
78402;SDS011;67687;43.508;1.504;2023-07-13T04:48:19;4.78;;;1.95;;
78402;SDS011;67687;43.508;1.504;2023-07-13T04:50:46;5.57;;;2.27;;
78402;SDS011;67687;43.508;1.504;2023-07-13T04:53:13;4.22;;;1.98;;
78402;SDS011;67687;43.508;1.504;2023-07-13T04:55:40;7.30;;;2.13;;
78402;SDS011;67687;43.508;1.504;2023-07-13T04:58:07;7.82;;;2.30;;
78402;SDS011;67687;43.508;1.504;2023-07-13T05:00:34;3.85;;;2.00;;
78402;SDS011;67687;43.508;1.504;2023-07-13T05:03:02;6.43;;;2.00;;
78402;SDS011;67687;43.508;1.504;2023-07-13T05:05:31;5.60;;;2.35;;
78402;SDS011;67687;43.508;1.504;2023-07-13T05:07:57;7.88;;;2.17;;
78402;SDS011;67687;43.508;1.504;2023-07-13T05:10:24;5.18;;;1.90;;
78402;SDS011;67687;43.508;1.504;2023-07-13T05:12:51;4.72;;;2.00;;
78402;SDS011;67687;43.508;1.504;2023-07-13T05:15:20;4.73;;;1.73;;
78402;SDS011;67687;43.508;1.504;2023-07-13T05:17:47;5.30;;;1.80;;
78402;SDS011;67687;43.508;1.504;2023-07-13T05:20:15;5.57;;;2.33;;
78402;SDS011;67687;43.508;1.504;2023-07-13T05:22:43;6.38;;;2.15;;
78402;SDS011;67687;43.508;1.504;2023-07-13T05:25:11;6.10;;;2.10;;
78402;SDS011;67687;43.508;1.504;2023-07-13T05:27:38;5.30;;;1.90;;
78402;SDS011;67687;43.508;1.504;2023-07-13T05:30:06;6.65;;;1.85;;
78402;SDS011;67687;43.508;1.504;2023-07-13T05:32:36;7.03;;;2.08;;
78402;SDS011;67687;43.508;1.504;2023-07-13T05:35:03;7.10;;;1.95;;
78402;SDS011;67687;43.508;1.504;2023-07-13T05:37:30;5.97;;;2.17;;
78402;SDS011;67687;43.508;1.504;2023-07-13T05:39:58;4.63;;;1.70;;
78402;SDS011;67687;43.508;1.504;2023-07-13T05:42:25;5.70;;;1.83;;
78402;SDS011;67687;43.508;1.504;2023-07-13T05:44:51;4.88;;;1.83;;
78402;SDS011;67687;43.508;1.504;2023-07-13T05:47:18;6.15;;;2.20;;
78402;SDS011;67687;43.508;1.504;2023-07-13T05:49:45;5.38;;;1.90;;
78402;SDS011;67687;43.508;1.504;2023-07-13T05:52:12;6.97;;;2.50;;
78402;SDS011;67687;43.508;1.504;2023-07-13T05:54:39;7.55;;;1.92;;
78402;SDS011;67687;43.508;1.504;2023-07-13T05:57:07;4.88;;;1.88;;
78402;SDS011;67687;43.508;1.504;2023-07-13T05:59:33;5.90;;;2.10;;
78402;SDS011;67687;43.508;1.504;2023-07-13T06:02:02;4.10;;;2.38;;
78402;SDS011;67687;43.508;1.504;2023-07-13T06:04:29;4.80;;;2.10;;
78402;SDS011;67687;43.508;1.504;2023-07-13T06:06:56;6.60;;;6.00;;
78402;SDS011;67687;43.508;1.504;2023-07-13T06:09:22;4.55;;;2.10;;
78402;SDS011;67687;43.508;1.504;2023-07-13T06:11:49;6.65;;;2.13;;
78402;SDS011;67687;43.508;1.504;2023-07-13T06:14:17;7.07;;;1.88;;
78402;SDS011;67687;43.508;1.504;2023-07-13T06:16:44;5.10;;;1.87;;
78402;SDS011;67687;43.508;1.504;2023-07-13T06:19:11;7.30;;;2.10;;
78402;SDS011;67687;43.508;1.504;2023-07-13T06:21:37;7.28;;;1.70;;
78402;SDS011;67687;43.508;1.504;2023-07-13T06:24:04;5.13;;;1.65;;
78402;SDS011;67687;43.508;1.504;2023-07-13T06:26:31;4.97;;;1.65;;
78402;SDS011;67687;43.508;1.504;2023-07-13T06:28:58;6.13;;;1.77;;
78402;SDS011;67687;43.508;1.504;2023-07-13T06:31:26;6.93;;;1.58;;
78402;SDS011;67687;43.508;1.504;2023-07-13T06:33:53;6.32;;;1.70;;
78402;SDS011;67687;43.508;1.504;2023-07-13T06:36:20;4.53;;;1.60;;
78402;SDS011;67687;43.508;1.504;2023-07-13T06:38:47;5.05;;;1.42;;
78402;SDS011;67687;43.508;1.504;2023-07-13T06:41:13;5.87;;;1.60;;
78402;SDS011;67687;43.508;1.504;2023-07-13T06:43:40;4.47;;;1.50;;
78402;SDS011;67687;43.508;1.504;2023-07-13T06:46:07;3.30;;;1.40;;
78402;SDS011;67687;43.508;1.504;2023-07-13T06:48:35;5.50;;;1.52;;
78402;SDS011;67687;43.508;1.504;2023-07-13T06:51:02;4.22;;;1.60;;
78402;SDS011;67687;43.508;1.504;2023-07-13T06:53:29;5.80;;;1.50;;
78402;SDS011;67687;43.508;1.504;2023-07-13T06:55:57;4.07;;;1.45;;
78402;SDS011;67687;43.508;1.504;2023-07-13T06:58:24;4.35;;;1.50;;
78402;SDS011;67687;43.508;1.504;2023-07-13T07:00:51;6.10;;;1.30;;
78402;SDS011;67687;43.508;1.504;2023-07-13T07:03:18;7.20;;;1.67;;
78402;SDS011;67687;43.508;1.504;2023-07-13T07:05:46;5.13;;;1.50;;
78402;SDS011;67687;43.508;1.504;2023-07-13T07:08:13;6.93;;;1.65;;
78402;SDS011;67687;43.508;1.504;2023-07-13T07:10:40;5.07;;;1.70;;
78402;SDS011;67687;43.508;1.504;2023-07-13T07:13:08;3.67;;;1.60;;
78402;SDS011;67687;43.508;1.504;2023-07-13T07:15:35;4.90;;;1.50;;
78402;SDS011;67687;43.508;1.504;2023-07-13T07:18:02;4.57;;;1.53;;
78402;SDS011;67687;43.508;1.504;2023-07-13T07:20:29;4.72;;;1.70;;
78402;SDS011;67687;43.508;1.504;2023-07-13T07:22:59;3.80;;;1.60;;
78402;SDS011;67687;43.508;1.504;2023-07-13T07:25:26;5.95;;;1.85;;
78402;SDS011;67687;43.508;1.504;2023-07-13T07:27:56;4.72;;;1.60;;
78402;SDS011;67687;43.508;1.504;2023-07-13T07:30:23;3.90;;;1.47;;
78402;SDS011;67687;43.508;1.504;2023-07-13T07:32:50;5.65;;;1.65;;
78402;SDS011;67687;43.508;1.504;2023-07-13T07:35:17;6.28;;;1.52;;
78402;SDS011;67687;43.508;1.504;2023-07-13T07:37:43;4.85;;;1.60;;
78402;SDS011;67687;43.508;1.504;2023-07-13T07:40:12;5.15;;;1.50;;
78402;SDS011;67687;43.508;1.504;2023-07-13T07:42:38;7.40;;;1.90;;
78402;SDS011;67687;43.508;1.504;2023-07-13T07:45:05;4.50;;;1.30;;
78402;SDS011;67687;43.508;1.504;2023-07-13T07:47:32;4.22;;;1.58;;
78402;SDS011;67687;43.508;1.504;2023-07-13T07:49:59;4.82;;;1.40;;
78402;SDS011;67687;43.508;1.504;2023-07-13T07:52:26;5.43;;;1.50;;
78402;SDS011;67687;43.508;1.504;2023-07-13T07:54:53;6.30;;;1.83;;
78402;SDS011;67687;43.508;1.504;2023-07-13T07:57:21;3.67;;;1.52;;
78402;SDS011;67687;43.508;1.504;2023-07-13T07:59:48;5.28;;;1.48;;
78402;SDS011;67687;43.508;1.504;2023-07-13T08:02:14;5.68;;;1.58;;
78402;SDS011;67687;43.508;1.504;2023-07-13T08:04:41;4.65;;;1.40;;
78402;SDS011;67687;43.508;1.504;2023-07-13T08:07:08;4.17;;;1.43;;
78402;SDS011;67687;43.508;1.504;2023-07-13T08:09:35;4.72;;;1.45;;
78402;SDS011;67687;43.508;1.504;2023-07-13T08:12:02;3.47;;;1.20;;
78402;SDS011;67687;43.508;1.504;2023-07-13T08:14:31;5.30;;;1.27;;
78402;SDS011;67687;43.508;1.504;2023-07-13T08:16:57;5.80;;;1.60;;
78402;SDS011;67687;43.508;1.504;2023-07-13T08:19:24;4.07;;;1.60;;
78402;SDS011;67687;43.508;1.504;2023-07-13T08:21:51;5.18;;;1.50;;
78402;SDS011;67687;43.508;1.504;2023-07-13T08:24:18;4.10;;;1.60;;
78402;SDS011;67687;43.508;1.504;2023-07-13T08:26:45;5.18;;;1.48;;
78402;SDS011;67687;43.508;1.504;2023-07-13T08:29:12;4.30;;;1.50;;
78402;SDS011;67687;43.508;1.504;2023-07-13T08:31:40;5.33;;;1.60;;
78402;SDS011;67687;43.508;1.504;2023-07-13T08:34:07;3.85;;;1.27;;
78402;SDS011;67687;43.508;1.504;2023-07-13T08:36:33;3.72;;;1.33;;
78402;SDS011;67687;43.508;1.504;2023-07-13T08:39:00;4.18;;;1.15;;
78402;SDS011;67687;43.508;1.504;2023-07-13T08:41:27;3.35;;;1.40;;
78402;SDS011;67687;43.508;1.504;2023-07-13T08:43:56;4.07;;;1.20;;
78402;SDS011;67687;43.508;1.504;2023-07-13T08:46:25;4.55;;;1.20;;
78402;SDS011;67687;43.508;1.504;2023-07-13T08:48:57;4.70;;;1.58;;
78402;SDS011;67687;43.508;1.504;2023-07-13T08:51:28;4.45;;;1.33;;
78402;SDS011;67687;43.508;1.504;2023-07-13T08:54:00;4.32;;;1.55;;
78402;SDS011;67687;43.508;1.504;2023-07-13T08:56:29;4.30;;;1.40;;
78402;SDS011;67687;43.508;1.504;2023-07-13T08:58:57;3.97;;;1.30;;
78402;SDS011;67687;43.508;1.504;2023-07-13T09:01:28;4.65;;;1.10;;
78402;SDS011;67687;43.508;1.504;2023-07-13T09:04:02;3.75;;;1.48;;
78402;SDS011;67687;43.508;1.504;2023-07-13T09:06:34;3.83;;;1.20;;
78402;SDS011;67687;43.508;1.504;2023-07-13T09:09:08;3.43;;;1.10;;
78402;SDS011;67687;43.508;1.504;2023-07-13T09:11:40;3.55;;;1.30;;
78402;SDS011;67687;43.508;1.504;2023-07-13T09:14:18;4.97;;;1.40;;
78402;SDS011;67687;43.508;1.504;2023-07-13T09:16:53;3.58;;;1.30;;
78402;SDS011;67687;43.508;1.504;2023-07-13T09:19:23;3.83;;;1.25;;
78402;SDS011;67687;43.508;1.504;2023-07-13T09:21:53;3.70;;;1.30;;
78402;SDS011;67687;43.508;1.504;2023-07-13T09:24:38;5.68;;;1.45;;
78402;SDS011;67687;43.508;1.504;2023-07-13T09:27:15;3.67;;;1.08;;
78402;SDS011;67687;43.508;1.504;2023-07-13T09:29:45;3.65;;;1.00;;
78402;SDS011;67687;43.508;1.504;2023-07-13T09:32:16;4.20;;;1.30;;
78402;SDS011;67687;43.508;1.504;2023-07-13T09:34:51;4.47;;;1.30;;
78402;SDS011;67687;43.508;1.504;2023-07-13T09:37:19;4.22;;;1.23;;
78402;SDS011;67687;43.508;1.504;2023-07-13T09:39:47;3.40;;;1.30;;
78402;SDS011;67687;43.508;1.504;2023-07-13T09:42:17;4.22;;;1.40;;
78402;SDS011;67687;43.508;1.504;2023-07-13T09:44:50;3.55;;;1.20;;
78402;SDS011;67687;43.508;1.504;2023-07-13T09:47:19;4.40;;;1.30;;
78402;SDS011;67687;43.508;1.504;2023-07-13T09:49:49;4.63;;;1.65;;
78402;SDS011;67687;43.508;1.504;2023-07-13T09:52:23;4.38;;;1.40;;
78402;SDS011;67687;43.508;1.504;2023-07-13T09:54:51;3.67;;;1.20;;
78402;SDS011;67687;43.508;1.504;2023-07-13T09:57:24;3.72;;;1.23;;
78402;SDS011;67687;43.508;1.504;2023-07-13T09:59:52;4.47;;;1.37;;
78402;SDS011;67687;43.508;1.504;2023-07-13T10:02:26;4.50;;;1.20;;
78402;SDS011;67687;43.508;1.504;2023-07-13T10:04:59;3.58;;;1.52;;
78402;SDS011;67687;43.508;1.504;2023-07-13T10:07:28;3.67;;;1.38;;
78402;SDS011;67687;43.508;1.504;2023-07-13T10:09:56;4.25;;;1.55;;
78402;SDS011;67687;43.508;1.504;2023-07-13T10:12:24;4.00;;;1.30;;
78402;SDS011;67687;43.508;1.504;2023-07-13T10:14:51;5.03;;;1.38;;
78402;SDS011;67687;43.508;1.504;2023-07-13T10:17:21;4.68;;;1.70;;
78402;SDS011;67687;43.508;1.504;2023-07-13T10:19:55;4.72;;;1.67;;
78402;SDS011;67687;43.508;1.504;2023-07-13T10:22:33;4.07;;;1.40;;
78402;SDS011;67687;43.508;1.504;2023-07-13T10:25:07;4.80;;;1.50;;
78402;SDS011;67687;43.508;1.504;2023-07-13T10:27:40;4.25;;;1.30;;
78402;SDS011;67687;43.508;1.504;2023-07-13T10:30:09;3.53;;;1.33;;
78402;SDS011;67687;43.508;1.504;2023-07-13T10:32:39;3.67;;;1.42;;
78402;SDS011;67687;43.508;1.504;2023-07-13T10:35:09;4.20;;;1.70;;
78402;SDS011;67687;43.508;1.504;2023-07-13T10:37:41;3.93;;;1.43;;
78402;SDS011;67687;43.508;1.504;2023-07-13T10:40:14;6.43;;;1.70;;
78402;SDS011;67687;43.508;1.504;2023-07-13T10:42:44;3.42;;;1.42;;
78402;SDS011;67687;43.508;1.504;2023-07-13T10:45:14;3.63;;;1.38;;
78402;SDS011;67687;43.508;1.504;2023-07-13T10:47:41;5.30;;;1.88;;
78402;SDS011;67687;43.508;1.504;2023-07-13T10:50:11;4.97;;;1.30;;
78402;SDS011;67687;43.508;1.504;2023-07-13T10:52:42;3.92;;;1.27;;
78402;SDS011;67687;43.508;1.504;2023-07-13T10:55:30;4.88;;;1.77;;
78402;SDS011;67687;43.508;1.504;2023-07-13T10:57:59;3.78;;;1.15;;
78402;SDS011;67687;43.508;1.504;2023-07-13T11:00:30;5.65;;;1.90;;
78402;SDS011;67687;43.508;1.504;2023-07-13T11:02:57;5.07;;;1.40;;
78402;SDS011;67687;43.508;1.504;2023-07-13T11:05:28;5.95;;;1.48;;
78402;SDS011;67687;43.508;1.504;2023-07-13T11:08:02;4.80;;;1.60;;
78402;SDS011;67687;43.508;1.504;2023-07-13T11:16:34;3.10;;;1.40;;
78402;SDS011;67687;43.508;1.504;2023-07-13T11:22:10;5.60;;;1.40;;
78402;SDS011;67687;43.508;1.504;2023-07-13T11:24:48;4.28;;;1.40;;
78402;SDS011;67687;43.508;1.504;2023-07-13T11:27:22;4.18;;;1.35;;
78402;SDS011;67687;43.508;1.504;2023-07-13T11:32:50;3.88;;;1.45;;
78402;SDS011;67687;43.508;1.504;2023-07-13T11:35:18;5.13;;;1.70;;
78402;SDS011;67687;43.508;1.504;2023-07-13T11:37:50;4.22;;;1.50;;
78402;SDS011;67687;43.508;1.504;2023-07-13T11:40:17;4.25;;;1.63;;
78402;SDS011;67687;43.508;1.504;2023-07-13T11:42:44;3.63;;;1.60;;
78402;SDS011;67687;43.508;1.504;2023-07-13T11:45:18;3.28;;;1.80;;
78402;SDS011;67687;43.508;1.504;2023-07-13T11:47:48;4.05;;;1.60;;
78402;SDS011;67687;43.508;1.504;2023-07-13T11:50:18;4.15;;;1.52;;
78402;SDS011;67687;43.508;1.504;2023-07-13T11:52:46;5.70;;;1.65;;
78402;SDS011;67687;43.508;1.504;2023-07-13T11:55:15;5.40;;;1.70;;
78402;SDS011;67687;43.508;1.504;2023-07-13T11:57:44;4.35;;;1.88;;
78402;SDS011;67687;43.508;1.504;2023-07-13T12:00:14;4.45;;;1.92;;
78402;SDS011;67687;43.508;1.504;2023-07-13T12:02:43;5.43;;;1.90;;
78402;SDS011;67687;43.508;1.504;2023-07-13T12:05:13;3.92;;;1.40;;
78402;SDS011;67687;43.508;1.504;2023-07-13T12:07:41;3.40;;;1.80;;
78402;SDS011;67687;43.508;1.504;2023-07-13T12:10:15;4.03;;;1.77;;
78402;SDS011;67687;43.508;1.504;2023-07-13T12:12:46;3.83;;;1.63;;
78402;SDS011;67687;43.508;1.504;2023-07-13T12:15:13;3.88;;;1.60;;
78402;SDS011;67687;43.508;1.504;2023-07-13T12:17:40;4.90;;;1.75;;
78402;SDS011;67687;43.508;1.504;2023-07-13T12:20:14;5.33;;;1.77;;
78402;SDS011;67687;43.508;1.504;2023-07-13T12:22:46;3.63;;;1.60;;
78402;SDS011;67687;43.508;1.504;2023-07-13T12:25:13;3.97;;;1.55;;
78402;SDS011;67687;43.508;1.504;2023-07-13T12:27:42;3.47;;;1.70;;
78402;SDS011;67687;43.508;1.504;2023-07-13T12:30:21;3.72;;;1.40;;
78402;SDS011;67687;43.508;1.504;2023-07-13T12:32:55;5.67;;;1.80;;
78402;SDS011;67687;43.508;1.504;2023-07-13T12:35:23;4.68;;;1.70;;
78402;SDS011;67687;43.508;1.504;2023-07-13T12:37:50;5.40;;;1.83;;
78402;SDS011;67687;43.508;1.504;2023-07-13T12:40:18;3.78;;;1.60;;
78402;SDS011;67687;43.508;1.504;2023-07-13T12:42:49;4.35;;;1.60;;
78402;SDS011;67687;43.508;1.504;2023-07-13T12:45:18;4.27;;;1.73;;
78402;SDS011;67687;43.508;1.504;2023-07-13T12:47:48;4.75;;;1.65;;
78402;SDS011;67687;43.508;1.504;2023-07-13T12:50:17;5.38;;;2.00;;
78402;SDS011;67687;43.508;1.504;2023-07-13T12:52:50;5.47;;;1.60;;
78402;SDS011;67687;43.508;1.504;2023-07-13T12:55:18;3.75;;;1.52;;
78402;SDS011;67687;43.508;1.504;2023-07-13T12:57:49;6.37;;;1.70;;
78402;SDS011;67687;43.508;1.504;2023-07-13T13:00:24;6.32;;;2.25;;
78402;SDS011;67687;43.508;1.504;2023-07-13T13:02:53;4.50;;;1.80;;
78402;SDS011;67687;43.508;1.504;2023-07-13T13:05:21;4.57;;;1.70;;
78402;SDS011;67687;43.508;1.504;2023-07-13T13:07:49;4.55;;;1.63;;
78402;SDS011;67687;43.508;1.504;2023-07-13T13:10:16;11.53;;;2.07;;
78402;SDS011;67687;43.508;1.504;2023-07-13T13:12:43;5.60;;;1.70;;
78402;SDS011;67687;43.508;1.504;2023-07-13T13:15:11;3.70;;;1.70;;
78402;SDS011;67687;43.508;1.504;2023-07-13T13:17:38;4.88;;;1.77;;
78402;SDS011;67687;43.508;1.504;2023-07-13T13:20:11;4.35;;;1.70;;
78402;SDS011;67687;43.508;1.504;2023-07-13T13:22:41;6.93;;;1.80;;
78402;SDS011;67687;43.508;1.504;2023-07-13T13:25:09;3.75;;;1.73;;
78402;SDS011;67687;43.508;1.504;2023-07-13T13:27:36;3.17;;;1.50;;
78402;SDS011;67687;43.508;1.504;2023-07-13T13:30:03;4.57;;;1.52;;
78402;SDS011;67687;43.508;1.504;2023-07-13T13:32:36;4.30;;;1.63;;
78402;SDS011;67687;43.508;1.504;2023-07-13T13:35:02;4.00;;;1.50;;
78402;SDS011;67687;43.508;1.504;2023-07-13T13:37:30;5.03;;;1.70;;
78402;SDS011;67687;43.508;1.504;2023-07-13T13:39:57;4.22;;;1.60;;
78402;SDS011;67687;43.508;1.504;2023-07-13T13:42:24;5.18;;;1.70;;
78402;SDS011;67687;43.508;1.504;2023-07-13T13:44:52;3.75;;;1.60;;
78402;SDS011;67687;43.508;1.504;2023-07-13T13:47:21;3.10;;;1.30;;
78402;SDS011;67687;43.508;1.504;2023-07-13T13:49:56;4.53;;;1.63;;
78402;SDS011;67687;43.508;1.504;2023-07-13T13:52:23;4.32;;;1.40;;
78402;SDS011;67687;43.508;1.504;2023-07-13T13:54:50;4.93;;;1.65;;
78402;SDS011;67687;43.508;1.504;2023-07-13T13:57:21;3.95;;;1.40;;
78402;SDS011;67687;43.508;1.504;2023-07-13T13:59:49;3.90;;;1.40;;
78402;SDS011;67687;43.508;1.504;2023-07-13T14:02:20;4.15;;;1.58;;
78402;SDS011;67687;43.508;1.504;2023-07-13T14:04:50;3.10;;;1.50;;
78402;SDS011;67687;43.508;1.504;2023-07-13T14:07:21;3.88;;;1.42;;
78402;SDS011;67687;43.508;1.504;2023-07-13T14:09:48;3.65;;;1.50;;
78402;SDS011;67687;43.508;1.504;2023-07-13T14:12:15;4.53;;;1.50;;
78402;SDS011;67687;43.508;1.504;2023-07-13T14:14:41;5.00;;;1.70;;
78402;SDS011;67687;43.508;1.504;2023-07-13T14:17:11;4.65;;;1.50;;
78402;SDS011;67687;43.508;1.504;2023-07-13T14:19:46;3.63;;;1.55;;
78402;SDS011;67687;43.508;1.504;2023-07-13T14:22:15;3.25;;;1.38;;
78402;SDS011;67687;43.508;1.504;2023-07-13T14:24:44;3.77;;;1.50;;
78402;SDS011;67687;43.508;1.504;2023-07-13T14:27:11;4.53;;;1.40;;
78402;SDS011;67687;43.508;1.504;2023-07-13T14:29:38;4.28;;;1.40;;
78402;SDS011;67687;43.508;1.504;2023-07-13T14:32:07;3.22;;;1.48;;
78402;SDS011;67687;43.508;1.504;2023-07-13T14:34:36;5.63;;;1.70;;
78402;SDS011;67687;43.508;1.504;2023-07-13T14:37:03;3.80;;;1.60;;
78402;SDS011;67687;43.508;1.504;2023-07-13T14:39:30;4.32;;;1.73;;
78402;SDS011;67687;43.508;1.504;2023-07-13T14:41:58;3.67;;;1.52;;
78402;SDS011;67687;43.508;1.504;2023-07-13T14:44:26;5.57;;;1.67;;
78402;SDS011;67687;43.508;1.504;2023-07-13T14:46:55;4.25;;;1.60;;
78402;SDS011;67687;43.508;1.504;2023-07-13T14:49:24;3.97;;;1.60;;
78402;SDS011;67687;43.508;1.504;2023-07-13T14:51:54;3.20;;;1.40;;
78402;SDS011;67687;43.508;1.504;2023-07-13T14:54:22;4.05;;;1.40;;
78402;SDS011;67687;43.508;1.504;2023-07-13T14:56:49;4.65;;;1.35;;
78402;SDS011;67687;43.508;1.504;2023-07-13T14:59:18;4.30;;;1.95;;
78402;SDS011;67687;43.508;1.504;2023-07-13T15:01:44;4.83;;;1.37;;
78402;SDS011;67687;43.508;1.504;2023-07-13T15:04:11;4.32;;;1.30;;
78402;SDS011;67687;43.508;1.504;2023-07-13T15:06:52;3.72;;;1.58;;